sensor_id;sensor_type;location;lat;lon;timestamp;temperature;humidity
11736;DHT22;5924;51.398;7.088;2022-09-09T00:02:27;14.20;99.90
11736;DHT22;5924;51.398;7.088;2022-09-09T00:05:17;14.20;99.90
11736;DHT22;5924;51.398;7.088;2022-09-09T00:07:51;15.20;99.90
11736;DHT22;5924;51.398;7.088;2022-09-09T00:10:38;14.20;99.90
11736;DHT22;5924;51.398;7.088;2022-09-09T00:21:15;14.10;99.90
11736;DHT22;5924;51.398;7.088;2022-09-09T00:23:54;14.10;99.90
11736;DHT22;5924;51.398;7.088;2022-09-09T00:26:48;14.00;99.90
11736;DHT22;5924;51.398;7.088;2022-09-09T00:29:40;14.00;99.90
11736;DHT22;5924;51.398;7.088;2022-09-09T00:32:17;14.00;99.90
11736;DHT22;5924;51.398;7.088;2022-09-09T00:34:53;13.90;99.90
11736;DHT22;5924;51.398;7.088;2022-09-09T00:37:22;13.80;99.90
11736;DHT22;5924;51.398;7.088;2022-09-09T00:39:52;13.80;99.90
11736;DHT22;5924;51.398;7.088;2022-09-09T00:42:23;13.80;99.90
11736;DHT22;5924;51.398;7.088;2022-09-09T00:44:59;13.80;99.90
11736;DHT22;5924;51.398;7.088;2022-09-09T00:47:52;13.80;99.90
11736;DHT22;5924;51.398;7.088;2022-09-09T00:53:21;13.70;99.90
11736;DHT22;5924;51.398;7.088;2022-09-09T00:56:16;13.70;99.90
11736;DHT22;5924;51.398;7.088;2022-09-09T01:01:37;13.70;99.90
11736;DHT22;5924;51.398;7.088;2022-09-09T01:04:09;13.70;99.90
11736;DHT22;5924;51.398;7.088;2022-09-09T01:06:40;13.70;99.90
11736;DHT22;5924;51.398;7.088;2022-09-09T01:09:55;13.70;99.90
11736;DHT22;5924;51.398;7.088;2022-09-09T01:12:22;13.70;99.90
11736;DHT22;5924;51.398;7.088;2022-09-09T01:14:52;13.70;99.90
11736;DHT22;5924;51.398;7.088;2022-09-09T01:23:14;13.80;99.90
11736;DHT22;5924;51.398;7.088;2022-09-09T01:28:50;13.70;99.90
11736;DHT22;5924;51.398;7.088;2022-09-09T01:31:21;13.80;99.90
11736;DHT22;5924;51.398;7.088;2022-09-09T01:33:48;13.90;99.90
11736;DHT22;5924;51.398;7.088;2022-09-09T01:36:42;13.90;99.90
11736;DHT22;5924;51.398;7.088;2022-09-09T01:39:09;13.90;99.90
11736;DHT22;5924;51.398;7.088;2022-09-09T01:41:35;13.90;99.90
11736;DHT22;5924;51.398;7.088;2022-09-09T01:44:02;14.00;99.90
11736;DHT22;5924;51.398;7.088;2022-09-09T01:46:28;14.00;99.90
11736;DHT22;5924;51.398;7.088;2022-09-09T01:48:55;14.00;99.90
11736;DHT22;5924;51.398;7.088;2022-09-09T01:51:22;13.90;99.90
11736;DHT22;5924;51.398;7.088;2022-09-09T01:53:48;13.90;99.90
11736;DHT22;5924;51.398;7.088;2022-09-09T01:56:35;13.90;99.90
11736;DHT22;5924;51.398;7.088;2022-09-09T01:59:21;13.90;99.90
11736;DHT22;5924;51.398;7.088;2022-09-09T02:06:55;13.80;99.90
11736;DHT22;5924;51.398;7.088;2022-09-09T02:09:25;13.80;99.90
11736;DHT22;5924;51.398;7.088;2022-09-09T02:11:57;13.80;99.90
11736;DHT22;5924;51.398;7.088;2022-09-09T02:14:30;13.80;99.90
11736;DHT22;5924;51.398;7.088;2022-09-09T02:17:13;13.80;99.90
11736;DHT22;5924;51.398;7.088;2022-09-09T02:19:48;13.80;99.90
11736;DHT22;5924;51.398;7.088;2022-09-09T02:22:17;13.80;99.90
11736;DHT22;5924;51.398;7.088;2022-09-09T02:24:44;13.80;99.90
11736;DHT22;5924;51.398;7.088;2022-09-09T02:27:12;13.90;99.90
11736;DHT22;5924;51.398;7.088;2022-09-09T02:29:41;14.00;99.90
11736;DHT22;5924;51.398;7.088;2022-09-09T02:32:11;14.10;99.90
11736;DHT22;5924;51.398;7.088;2022-09-09T02:34:50;14.10;99.90
11736;DHT22;5924;51.398;7.088;2022-09-09T02:37:20;14.10;99.90
11736;DHT22;5924;51.398;7.088;2022-09-09T02:39:47;14.20;99.90
11736;DHT22;5924;51.398;7.088;2022-09-09T02:42:13;14.20;99.90
11736;DHT22;5924;51.398;7.088;2022-09-09T02:44:40;14.20;99.90
11736;DHT22;5924;51.398;7.088;2022-09-09T02:55:52;14.40;99.90
11736;DHT22;5924;51.398;7.088;2022-09-09T02:58:17;14.40;99.90
11736;DHT22;5924;51.398;7.088;2022-09-09T03:00:46;14.40;99.90
11736;DHT22;5924;51.398;7.088;2022-09-09T03:03:12;14.40;99.90
11736;DHT22;5924;51.398;7.088;2022-09-09T03:05:38;14.40;99.90
11736;DHT22;5924;51.398;7.088;2022-09-09T03:08:04;14.40;99.90
11736;DHT22;5924;51.398;7.088;2022-09-09T03:10:31;14.40;99.90
11736;DHT22;5924;51.398;7.088;2022-09-09T03:12:57;14.40;99.90
11736;DHT22;5924;51.398;7.088;2022-09-09T03:15:23;14.30;99.90
11736;DHT22;5924;51.398;7.088;2022-09-09T03:17:48;14.30;99.90
11736;DHT22;5924;51.398;7.088;2022-09-09T03:20:14;14.30;99.90
11736;DHT22;5924;51.398;7.088;2022-09-09T03:22:40;14.30;99.90
11736;DHT22;5924;51.398;7.088;2022-09-09T03:25:06;14.20;99.90
11736;DHT22;5924;51.398;7.088;2022-09-09T03:27:32;14.20;99.90
11736;DHT22;5924;51.398;7.088;2022-09-09T03:29:58;14.20;99.90
11736;DHT22;5924;51.398;7.088;2022-09-09T03:32:24;14.10;99.90
11736;DHT22;5924;51.398;7.088;2022-09-09T03:34:51;14.10;99.90
11736;DHT22;5924;51.398;7.088;2022-09-09T03:37:18;14.10;99.90
11736;DHT22;5924;51.398;7.088;2022-09-09T03:39:45;14.10;99.90
11736;DHT22;5924;51.398;7.088;2022-09-09T03:42:14;14.10;99.90
11736;DHT22;5924;51.398;7.088;2022-09-09T03:44:40;14.10;99.90
11736;DHT22;5924;51.398;7.088;2022-09-09T03:47:07;13.60;99.90
11736;DHT22;5924;51.398;7.088;2022-09-09T03:49:33;14.20;99.90
11736;DHT22;5924;51.398;7.088;2022-09-09T03:51:59;14.20;99.90
11736;DHT22;5924;51.398;7.088;2022-09-09T03:54:26;14.20;99.90
11736;DHT22;5924;51.398;7.088;2022-09-09T03:56:52;14.30;99.90
11736;DHT22;5924;51.398;7.088;2022-09-09T03:59:18;14.30;99.90
11736;DHT22;5924;51.398;7.088;2022-09-09T04:01:44;14.30;99.90
11736;DHT22;5924;51.398;7.088;2022-09-09T04:04:10;14.40;99.90
11736;DHT22;5924;51.398;7.088;2022-09-09T04:06:37;14.40;99.90
11736;DHT22;5924;51.398;7.088;2022-09-09T04:09:03;14.40;99.90
11736;DHT22;5924;51.398;7.088;2022-09-09T04:11:28;14.40;99.90
11736;DHT22;5924;51.398;7.088;2022-09-09T04:13:54;14.40;99.90
11736;DHT22;5924;51.398;7.088;2022-09-09T04:16:20;14.40;99.90
11736;DHT22;5924;51.398;7.088;2022-09-09T04:18:46;14.40;99.90
11736;DHT22;5924;51.398;7.088;2022-09-09T04:21:12;14.30;99.90
11736;DHT22;5924;51.398;7.088;2022-09-09T04:23:38;14.30;99.90
11736;DHT22;5924;51.398;7.088;2022-09-09T04:26:05;14.20;99.90
11736;DHT22;5924;51.398;7.088;2022-09-09T04:28:33;14.10;99.90
11736;DHT22;5924;51.398;7.088;2022-09-09T04:31:07;14.10;99.90
11736;DHT22;5924;51.398;7.088;2022-09-09T04:33:33;14.10;99.90
11736;DHT22;5924;51.398;7.088;2022-09-09T04:35:58;14.00;99.90
11736;DHT22;5924;51.398;7.088;2022-09-09T04:38:24;14.00;99.90
11736;DHT22;5924;51.398;7.088;2022-09-09T04:40:51;14.00;99.90
11736;DHT22;5924;51.398;7.088;2022-09-09T04:43:19;14.10;99.90
11736;DHT22;5924;51.398;7.088;2022-09-09T04:45:47;14.10;99.90
11736;DHT22;5924;51.398;7.088;2022-09-09T04:48:13;14.10;99.90
11736;DHT22;5924;51.398;7.088;2022-09-09T04:50:39;14.10;99.90
11736;DHT22;5924;51.398;7.088;2022-09-09T04:53:06;14.20;99.90
11736;DHT22;5924;51.398;7.088;2022-09-09T04:55:33;14.20;99.90
11736;DHT22;5924;51.398;7.088;2022-09-09T04:58:07;14.30;99.90
11736;DHT22;5924;51.398;7.088;2022-09-09T05:00:37;14.30;99.90
11736;DHT22;5924;51.398;7.088;2022-09-09T05:03:06;14.30;99.90
11736;DHT22;5924;51.398;7.088;2022-09-09T05:05:34;14.30;99.90
11736;DHT22;5924;51.398;7.088;2022-09-09T05:08:04;14.30;99.90
11736;DHT22;5924;51.398;7.088;2022-09-09T05:10:31;14.40;99.90
11736;DHT22;5924;51.398;7.088;2022-09-09T05:12:57;16.20;99.90
11736;DHT22;5924;51.398;7.088;2022-09-09T05:15:23;14.50;99.90
11736;DHT22;5924;51.398;7.088;2022-09-09T05:17:49;14.50;99.90
11736;DHT22;5924;51.398;7.088;2022-09-09T05:20:14;14.50;99.90
11736;DHT22;5924;51.398;7.088;2022-09-09T05:22:40;14.60;99.90
11736;DHT22;5924;51.398;7.088;2022-09-09T05:25:06;14.60;99.90
11736;DHT22;5924;51.398;7.088;2022-09-09T05:27:34;14.70;99.90
11736;DHT22;5924;51.398;7.088;2022-09-09T05:29:59;14.70;99.90
11736;DHT22;5924;51.398;7.088;2022-09-09T05:32:25;12.70;99.90
11736;DHT22;5924;51.398;7.088;2022-09-09T05:34:51;14.70;99.90
11736;DHT22;5924;51.398;7.088;2022-09-09T05:37:17;14.80;99.90
11736;DHT22;5924;51.398;7.088;2022-09-09T05:39:44;14.90;99.90
11736;DHT22;5924;51.398;7.088;2022-09-09T05:42:10;15.00;99.90
11736;DHT22;5924;51.398;7.088;2022-09-09T05:44:35;15.00;99.90
11736;DHT22;5924;51.398;7.088;2022-09-09T05:47:03;15.00;99.90
11736;DHT22;5924;51.398;7.088;2022-09-09T05:49:28;15.10;99.90
11736;DHT22;5924;51.398;7.088;2022-09-09T05:51:54;15.60;99.90
11736;DHT22;5924;51.398;7.088;2022-09-09T05:54:20;15.20;99.90
11736;DHT22;5924;51.398;7.088;2022-09-09T05:56:45;15.20;99.90
11736;DHT22;5924;51.398;7.088;2022-09-09T05:59:11;15.20;99.90
11736;DHT22;5924;51.398;7.088;2022-09-09T06:01:38;15.30;99.90
11736;DHT22;5924;51.398;7.088;2022-09-09T06:04:07;15.30;99.90
11736;DHT22;5924;51.398;7.088;2022-09-09T06:06:35;15.40;99.90
11736;DHT22;5924;51.398;7.088;2022-09-09T06:09:03;15.40;99.90
11736;DHT22;5924;51.398;7.088;2022-09-09T06:11:32;15.50;99.90
11736;DHT22;5924;51.398;7.088;2022-09-09T06:13:59;15.50;99.90
11736;DHT22;5924;51.398;7.088;2022-09-09T06:16:27;16.70;99.90
11736;DHT22;5924;51.398;7.088;2022-09-09T06:18:54;15.60;99.90
11736;DHT22;5924;51.398;7.088;2022-09-09T06:21:21;15.70;99.90
11736;DHT22;5924;51.398;7.088;2022-09-09T06:23:47;15.70;99.90
11736;DHT22;5924;51.398;7.088;2022-09-09T06:26:14;17.10;99.90
11736;DHT22;5924;51.398;7.088;2022-09-09T06:28:40;15.80;99.90
11736;DHT22;5924;51.398;7.088;2022-09-09T06:31:09;15.90;99.90
11736;DHT22;5924;51.398;7.088;2022-09-09T06:33:37;16.00;99.90
11736;DHT22;5924;51.398;7.088;2022-09-09T06:36:07;16.00;99.90
11736;DHT22;5924;51.398;7.088;2022-09-09T06:38:35;16.10;99.90
11736;DHT22;5924;51.398;7.088;2022-09-09T06:41:01;16.10;99.90
11736;DHT22;5924;51.398;7.088;2022-09-09T06:43:27;16.20;99.90
11736;DHT22;5924;51.398;7.088;2022-09-09T06:46:08;16.20;99.90
11736;DHT22;5924;51.398;7.088;2022-09-09T06:48:35;16.30;99.60
11736;DHT22;5924;51.398;7.088;2022-09-09T06:51:05;16.30;96.20
11736;DHT22;5924;51.398;7.088;2022-09-09T06:53:33;16.30;97.90
11736;DHT22;5924;51.398;7.088;2022-09-09T06:56:02;16.30;93.20
11736;DHT22;5924;51.398;7.088;2022-09-09T06:58:41;16.40;95.70
11736;DHT22;5924;51.398;7.088;2022-09-09T07:01:14;16.50;96.00
11736;DHT22;5924;51.398;7.088;2022-09-09T07:03:41;16.20;90.40
11736;DHT22;5924;51.398;7.088;2022-09-09T07:06:08;16.70;82.30
11736;DHT22;5924;51.398;7.088;2022-09-09T07:08:34;16.80;77.60
11736;DHT22;5924;51.398;7.088;2022-09-09T07:11:07;16.80;68.80
11736;DHT22;5924;51.398;7.088;2022-09-09T07:13:34;16.80;69.20
11736;DHT22;5924;51.398;7.088;2022-09-09T07:16:06;16.90;81.10
11736;DHT22;5924;51.398;7.088;2022-09-09T07:18:33;17.10;64.00
11736;DHT22;5924;51.398;7.088;2022-09-09T07:21:00;17.20;57.70
11736;DHT22;5924;51.398;7.088;2022-09-09T07:23:27;17.30;47.30
11736;DHT22;5924;51.398;7.088;2022-09-09T07:25:53;17.40;42.40
11736;DHT22;5924;51.398;7.088;2022-09-09T07:28:20;17.30;36.40
11736;DHT22;5924;51.398;7.088;2022-09-09T07:30:59;17.20;35.60
11736;DHT22;5924;51.398;7.088;2022-09-09T07:33:27;17.10;43.60
11736;DHT22;5924;51.398;7.088;2022-09-09T07:36:06;17.10;51.60
11736;DHT22;5924;51.398;7.088;2022-09-09T07:38:38;17.10;43.20
11736;DHT22;5924;51.398;7.088;2022-09-09T07:41:09;17.00;45.00
11736;DHT22;5924;51.398;7.088;2022-09-09T07:43:41;17.00;42.40
11736;DHT22;5924;51.398;7.088;2022-09-09T07:46:08;17.00;42.30
11736;DHT22;5924;51.398;7.088;2022-09-09T07:48:34;17.10;45.20
11736;DHT22;5924;51.398;7.088;2022-09-09T07:51:09;17.10;30.60
11736;DHT22;5924;51.398;7.088;2022-09-09T07:53:37;17.10;28.90
11736;DHT22;5924;51.398;7.088;2022-09-09T07:56:08;17.20;26.10
11736;DHT22;5924;51.398;7.088;2022-09-09T07:58:36;17.30;28.40
11736;DHT22;5924;51.398;7.088;2022-09-09T08:01:10;17.60;18.30
11736;DHT22;5924;51.398;7.088;2022-09-09T08:03:37;17.90;1.00
11736;DHT22;5924;51.398;7.088;2022-09-09T08:06:07;18.30;1.00
11736;DHT22;5924;51.398;7.088;2022-09-09T08:08:35;18.40;1.00
11736;DHT22;5924;51.398;7.088;2022-09-09T08:11:04;18.40;1.00
11736;DHT22;5924;51.398;7.088;2022-09-09T08:13:30;18.40;1.00
11736;DHT22;5924;51.398;7.088;2022-09-09T08:18:35;16.80;1.00
11736;DHT22;5924;51.398;7.088;2022-09-09T08:21:11;18.70;1.00
11736;DHT22;5924;51.398;7.088;2022-09-09T08:23:38;18.60;1.00
11736;DHT22;5924;51.398;7.088;2022-09-09T08:26:16;18.30;1.00
11736;DHT22;5924;51.398;7.088;2022-09-09T08:28:42;18.20;1.00
11736;DHT22;5924;51.398;7.088;2022-09-09T08:33:35;18.40;1.00
11736;DHT22;5924;51.398;7.088;2022-09-09T08:36:04;18.90;1.00
11736;DHT22;5924;51.398;7.088;2022-09-09T08:38:30;19.30;1.00
11736;DHT22;5924;51.398;7.088;2022-09-09T08:41:08;19.60;1.00
11736;DHT22;5924;51.398;7.088;2022-09-09T08:43:36;20.00;1.00
11736;DHT22;5924;51.398;7.088;2022-09-09T08:46:10;20.30;99.90
11736;DHT22;5924;51.398;7.088;2022-09-09T08:51:28;20.60;99.90
11736;DHT22;5924;51.398;7.088;2022-09-09T08:53:55;20.70;99.90
11736;DHT22;5924;51.398;7.088;2022-09-09T08:56:24;20.70;1.00
11736;DHT22;5924;51.398;7.088;2022-09-09T08:58:53;20.60;1.00
11736;DHT22;5924;51.398;7.088;2022-09-09T09:07:18;19.70;99.90
11736;DHT22;5924;51.398;7.088;2022-09-09T09:10:24;19.30;99.90
11736;DHT22;5924;51.398;7.088;2022-09-09T09:12:56;19.10;1.00
11736;DHT22;5924;51.398;7.088;2022-09-09T09:15:30;18.90;1.00
11736;DHT22;5924;51.398;7.088;2022-09-09T09:17:56;18.80;99.90
11736;DHT22;5924;51.398;7.088;2022-09-09T09:20:42;18.90;1.00
11736;DHT22;5924;51.398;7.088;2022-09-09T09:23:21;19.00;99.90
11736;DHT22;5924;51.398;7.088;2022-09-09T09:25:47;19.30;99.90
11736;DHT22;5924;51.398;7.088;2022-09-09T09:28:27;19.70;99.90
11736;DHT22;5924;51.398;7.088;2022-09-09T09:31:11;20.00;99.90
11736;DHT22;5924;51.398;7.088;2022-09-09T09:36:08;20.40;1.00
11736;DHT22;5924;51.398;7.088;2022-09-09T09:38:34;20.80;1.00
11736;DHT22;5924;51.398;7.088;2022-09-09T09:41:00;21.00;1.00
11736;DHT22;5924;51.398;7.088;2022-09-09T09:43:30;21.20;1.00
11736;DHT22;5924;51.398;7.088;2022-09-09T09:45:57;21.20;99.50
11736;DHT22;5924;51.398;7.088;2022-09-09T09:48:24;20.90;1.00
11736;DHT22;5924;51.398;7.088;2022-09-09T09:50:54;20.70;51.50
11736;DHT22;5924;51.398;7.088;2022-09-09T09:56:00;20.30;99.90
11736;DHT22;5924;51.398;7.088;2022-09-09T09:58:31;20.10;1.00
11736;DHT22;5924;51.398;7.088;2022-09-09T10:00:59;20.00;99.90
11736;DHT22;5924;51.398;7.088;2022-09-09T10:03:33;19.90;1.00
11736;DHT22;5924;51.398;7.088;2022-09-09T10:06:03;19.80;31.20
11736;DHT22;5924;51.398;7.088;2022-09-09T10:08:32;19.60;1.00
11736;DHT22;5924;51.398;7.088;2022-09-09T10:18:52;20.10;99.90
11736;DHT22;5924;51.398;7.088;2022-09-09T10:21:46;20.50;1.00
11736;DHT22;5924;51.398;7.088;2022-09-09T10:29:58;21.40;99.90
11736;DHT22;5924;51.398;7.088;2022-09-09T10:32:39;22.30;99.90
11736;DHT22;5924;51.398;7.088;2022-09-09T10:35:19;21.50;99.90
11736;DHT22;5924;51.398;7.088;2022-09-09T10:49:21;21.70;99.90
11736;DHT22;5924;51.398;7.088;2022-09-09T10:52:02;22.00;99.90
11736;DHT22;5924;51.398;7.088;2022-09-09T10:57:03;21.60;99.90
11736;DHT22;5924;51.398;7.088;2022-09-09T10:59:43;21.30;99.90
11736;DHT22;5924;51.398;7.088;2022-09-09T11:07:32;21.40;99.90
11736;DHT22;5924;51.398;7.088;2022-09-09T11:10:06;22.10;99.90
11736;DHT22;5924;51.398;7.088;2022-09-09T11:12:34;21.80;99.90
11736;DHT22;5924;51.398;7.088;2022-09-09T11:15:13;22.10;99.90
11736;DHT22;5924;51.398;7.088;2022-09-09T11:17:52;22.40;99.90
11736;DHT22;5924;51.398;7.088;2022-09-09T11:20:20;22.50;99.90
11736;DHT22;5924;51.398;7.088;2022-09-09T11:25:23;22.60;99.90
11736;DHT22;5924;51.398;7.088;2022-09-09T11:28:14;22.40;99.90
11736;DHT22;5924;51.398;7.088;2022-09-09T11:42:21;21.30;99.90
11736;DHT22;5924;51.398;7.088;2022-09-09T11:44:47;21.80;99.90
11736;DHT22;5924;51.398;7.088;2022-09-09T11:47:22;22.10;99.90
11736;DHT22;5924;51.398;7.088;2022-09-09T11:49:49;22.20;99.90
11736;DHT22;5924;51.398;7.088;2022-09-09T11:52:37;22.10;99.90
11736;DHT22;5924;51.398;7.088;2022-09-09T11:55:11;21.90;99.90
11736;DHT22;5924;51.398;7.088;2022-09-09T11:57:38;21.80;99.90
11736;DHT22;5924;51.398;7.088;2022-09-09T12:00:05;21.40;99.90
11736;DHT22;5924;51.398;7.088;2022-09-09T12:02:31;21.20;99.90
11736;DHT22;5924;51.398;7.088;2022-09-09T12:05:09;20.80;99.90
11736;DHT22;5924;51.398;7.088;2022-09-09T12:07:57;20.60;1.60
11736;DHT22;5924;51.398;7.088;2022-09-09T12:10:31;20.60;99.90
11736;DHT22;5924;51.398;7.088;2022-09-09T12:13:19;20.70;99.90
11736;DHT22;5924;51.398;7.088;2022-09-09T12:15:56;21.30;99.90
11736;DHT22;5924;51.398;7.088;2022-09-09T12:18:45;22.20;99.90
11736;DHT22;5924;51.398;7.088;2022-09-09T12:24:29;23.30;99.90
11736;DHT22;5924;51.398;7.088;2022-09-09T12:27:18;22.70;99.90
11736;DHT22;5924;51.398;7.088;2022-09-09T12:29:56;22.00;99.90
11736;DHT22;5924;51.398;7.088;2022-09-09T12:32:25;21.50;99.90
11736;DHT22;5924;51.398;7.088;2022-09-09T12:35:19;21.20;99.90
11736;DHT22;5924;51.398;7.088;2022-09-09T12:37:46;21.00;99.90
11736;DHT22;5924;51.398;7.088;2022-09-09T12:42:46;20.80;99.90
11736;DHT22;5924;51.398;7.088;2022-09-09T12:45:22;21.20;1.00
11736;DHT22;5924;51.398;7.088;2022-09-09T12:48:00;21.80;99.90
11736;DHT22;5924;51.398;7.088;2022-09-09T12:50:32;22.90;99.90
11736;DHT22;5924;51.398;7.088;2022-09-09T12:53:06;24.20;99.90
11736;DHT22;5924;51.398;7.088;2022-09-09T12:55:37;25.60;99.90
11736;DHT22;5924;51.398;7.088;2022-09-09T12:58:05;26.60;99.90
11736;DHT22;5924;51.398;7.088;2022-09-09T13:00:33;27.10;99.90
11736;DHT22;5924;51.398;7.088;2022-09-09T13:03:16;27.80;99.90
11736;DHT22;5924;51.398;7.088;2022-09-09T13:05:42;27.20;99.90
11736;DHT22;5924;51.398;7.088;2022-09-09T13:08:13;26.40;99.90
11736;DHT22;5924;51.398;7.088;2022-09-09T13:10:40;25.60;99.90
11736;DHT22;5924;51.398;7.088;2022-09-09T13:13:21;25.20;99.90
11736;DHT22;5924;51.398;7.088;2022-09-09T13:15:56;25.70;99.90
11736;DHT22;5924;51.398;7.088;2022-09-09T13:18:25;25.70;99.90
11736;DHT22;5924;51.398;7.088;2022-09-09T13:20:52;25.00;99.90
11736;DHT22;5924;51.398;7.088;2022-09-09T13:23:20;24.20;99.90
11736;DHT22;5924;51.398;7.088;2022-09-09T13:26:02;23.20;99.90
11736;DHT22;5924;51.398;7.088;2022-09-09T13:28:29;22.20;99.90
11736;DHT22;5924;51.398;7.088;2022-09-09T13:31:02;21.50;99.90
11736;DHT22;5924;51.398;7.088;2022-09-09T13:33:33;20.90;99.90
11736;DHT22;5924;51.398;7.088;2022-09-09T13:36:07;20.40;99.90
11736;DHT22;5924;51.398;7.088;2022-09-09T13:41:24;19.20;1.00
11736;DHT22;5924;51.398;7.088;2022-09-09T13:43:51;18.40;1.00
11736;DHT22;5924;51.398;7.088;2022-09-09T13:49:16;18.40;12.70
11736;DHT22;5924;51.398;7.088;2022-09-09T13:51:46;18.50;11.20
11736;DHT22;5924;51.398;7.088;2022-09-09T13:54:15;18.60;21.00
11736;DHT22;5924;51.398;7.088;2022-09-09T13:56:41;18.80;24.40
11736;DHT22;5924;51.398;7.088;2022-09-09T13:59:13;18.00;16.00
11736;DHT22;5924;51.398;7.088;2022-09-09T14:01:40;18.70;27.30
11736;DHT22;5924;51.398;7.088;2022-09-09T14:04:06;18.50;34.90
11736;DHT22;5924;51.398;7.088;2022-09-09T14:06:32;18.50;41.40
11736;DHT22;5924;51.398;7.088;2022-09-09T14:09:00;19.00;58.70
11736;DHT22;5924;51.398;7.088;2022-09-09T14:11:26;19.30;18.50
11736;DHT22;5924;51.398;7.088;2022-09-09T14:13:51;20.20;21.10
11736;DHT22;5924;51.398;7.088;2022-09-09T14:16:18;21.50;1.00
11736;DHT22;5924;51.398;7.088;2022-09-09T14:18:44;22.40;1.00
11736;DHT22;5924;51.398;7.088;2022-09-09T14:21:11;22.80;1.00
11736;DHT22;5924;51.398;7.088;2022-09-09T14:23:37;22.70;1.00
11736;DHT22;5924;51.398;7.088;2022-09-09T14:26:07;22.80;99.90
11736;DHT22;5924;51.398;7.088;2022-09-09T14:28:33;22.40;99.90
11736;DHT22;5924;51.398;7.088;2022-09-09T14:31:04;21.90;1.00
11736;DHT22;5924;51.398;7.088;2022-09-09T14:33:30;21.50;1.00
11736;DHT22;5924;51.398;7.088;2022-09-09T14:36:00;21.00;1.00
11736;DHT22;5924;51.398;7.088;2022-09-09T14:38:30;20.80;1.00
11736;DHT22;5924;51.398;7.088;2022-09-09T14:40:55;20.70;1.00
11736;DHT22;5924;51.398;7.088;2022-09-09T14:43:21;21.00;1.00
11736;DHT22;5924;51.398;7.088;2022-09-09T14:45:47;23.00;1.00
11736;DHT22;5924;51.398;7.088;2022-09-09T14:48:17;25.20;1.00
11736;DHT22;5924;51.398;7.088;2022-09-09T14:50:42;27.00;1.00
11736;DHT22;5924;51.398;7.088;2022-09-09T14:53:09;27.80;82.00
11736;DHT22;5924;51.398;7.088;2022-09-09T14:55:35;27.90;99.90
11736;DHT22;5924;51.398;7.088;2022-09-09T14:58:01;26.70;99.90
11736;DHT22;5924;51.398;7.088;2022-09-09T15:00:27;24.70;99.90
11736;DHT22;5924;51.398;7.088;2022-09-09T15:02:53;23.00;7.00
11736;DHT22;5924;51.398;7.088;2022-09-09T15:05:19;21.60;99.90
11736;DHT22;5924;51.398;7.088;2022-09-09T15:07:45;18.30;1.00
11736;DHT22;5924;51.398;7.088;2022-09-09T15:10:11;18.80;1.00
11736;DHT22;5924;51.398;7.088;2022-09-09T15:12:37;17.70;1.00
11736;DHT22;5924;51.398;7.088;2022-09-09T15:15:04;17.00;33.80
11736;DHT22;5924;51.398;7.088;2022-09-09T15:17:30;16.50;77.80
11736;DHT22;5924;51.398;7.088;2022-09-09T15:19:56;16.30;93.20
11736;DHT22;5924;51.398;7.088;2022-09-09T15:22:22;16.10;98.50
11736;DHT22;5924;51.398;7.088;2022-09-09T15:24:49;15.70;95.50
11736;DHT22;5924;51.398;7.088;2022-09-09T15:27:15;15.50;99.90
11736;DHT22;5924;51.398;7.088;2022-09-09T15:29:41;15.40;99.90
11736;DHT22;5924;51.398;7.088;2022-09-09T15:32:07;15.30;99.90
11736;DHT22;5924;51.398;7.088;2022-09-09T15:34:33;15.30;99.90
11736;DHT22;5924;51.398;7.088;2022-09-09T15:36:58;15.30;99.90
11736;DHT22;5924;51.398;7.088;2022-09-09T15:39:25;15.40;99.90
11736;DHT22;5924;51.398;7.088;2022-09-09T15:41:50;15.40;99.90
11736;DHT22;5924;51.398;7.088;2022-09-09T15:44:17;15.30;99.90
11736;DHT22;5924;51.398;7.088;2022-09-09T15:46:51;15.30;99.90
11736;DHT22;5924;51.398;7.088;2022-09-09T15:49:21;15.40;99.90
11736;DHT22;5924;51.398;7.088;2022-09-09T15:51:57;15.50;99.90
11736;DHT22;5924;51.398;7.088;2022-09-09T15:54:25;15.60;99.90
11736;DHT22;5924;51.398;7.088;2022-09-09T15:56:56;15.70;99.90
11736;DHT22;5924;51.398;7.088;2022-09-09T15:59:23;15.80;99.90
11736;DHT22;5924;51.398;7.088;2022-09-09T16:01:49;15.90;99.90
11736;DHT22;5924;51.398;7.088;2022-09-09T16:04:20;15.90;99.90
11736;DHT22;5924;51.398;7.088;2022-09-09T16:06:53;15.90;99.90
11736;DHT22;5924;51.398;7.088;2022-09-09T16:09:18;16.00;99.90
11736;DHT22;5924;51.398;7.088;2022-09-09T16:11:44;16.10;99.90
11736;DHT22;5924;51.398;7.088;2022-09-09T16:14:10;16.10;99.90
11736;DHT22;5924;51.398;7.088;2022-09-09T16:16:36;16.20;99.90
11736;DHT22;5924;51.398;7.088;2022-09-09T16:19:08;16.30;99.90
11736;DHT22;5924;51.398;7.088;2022-09-09T16:21:46;16.40;99.90
11736;DHT22;5924;51.398;7.088;2022-09-09T16:24:15;16.40;99.60
11736;DHT22;5924;51.398;7.088;2022-09-09T16:26:43;16.40;98.50
11736;DHT22;5924;51.398;7.088;2022-09-09T16:29:13;16.40;98.90
11736;DHT22;5924;51.398;7.088;2022-09-09T16:31:40;16.20;96.80
11736;DHT22;5924;51.398;7.088;2022-09-09T16:34:07;16.00;99.90
11736;DHT22;5924;51.398;7.088;2022-09-09T16:36:35;16.00;99.90
11736;DHT22;5924;51.398;7.088;2022-09-09T16:39:04;16.20;99.90
11736;DHT22;5924;51.398;7.088;2022-09-09T16:41:31;16.30;99.90
11736;DHT22;5924;51.398;7.088;2022-09-09T16:43:58;16.40;99.90
11736;DHT22;5924;51.398;7.088;2022-09-09T16:46:26;16.40;99.70
11736;DHT22;5924;51.398;7.088;2022-09-09T16:48:53;16.50;99.90
11736;DHT22;5924;51.398;7.088;2022-09-09T16:51:26;16.50;99.90
11736;DHT22;5924;51.398;7.088;2022-09-09T16:53:53;16.60;99.90
11736;DHT22;5924;51.398;7.088;2022-09-09T16:56:22;16.60;99.90
11736;DHT22;5924;51.398;7.088;2022-09-09T16:59:01;16.60;99.90
11736;DHT22;5924;51.398;7.088;2022-09-09T17:01:30;16.50;99.90
11736;DHT22;5924;51.398;7.088;2022-09-09T17:03:58;16.50;99.90
11736;DHT22;5924;51.398;7.088;2022-09-09T17:06:24;16.40;99.90
11736;DHT22;5924;51.398;7.088;2022-09-09T17:08:59;16.20;99.90
11736;DHT22;5924;51.398;7.088;2022-09-09T17:11:27;16.10;99.90
11736;DHT22;5924;51.398;7.088;2022-09-09T17:13:55;17.00;99.90
11736;DHT22;5924;51.398;7.088;2022-09-09T17:16:23;15.80;99.90
11736;DHT22;5924;51.398;7.088;2022-09-09T17:18:52;15.70;99.90
11736;DHT22;5924;51.398;7.088;2022-09-09T17:21:20;15.60;99.90
11736;DHT22;5924;51.398;7.088;2022-09-09T17:23:46;15.60;99.90
11736;DHT22;5924;51.398;7.088;2022-09-09T17:26:15;15.60;99.90
11736;DHT22;5924;51.398;7.088;2022-09-09T17:28:42;15.70;99.90
11736;DHT22;5924;51.398;7.088;2022-09-09T17:31:09;15.70;99.90
11736;DHT22;5924;51.398;7.088;2022-09-09T17:33:37;15.70;99.90
11736;DHT22;5924;51.398;7.088;2022-09-09T17:38:33;15.70;99.90
11736;DHT22;5924;51.398;7.088;2022-09-09T17:41:07;15.60;99.90
11736;DHT22;5924;51.398;7.088;2022-09-09T17:43:34;15.50;99.90
11736;DHT22;5924;51.398;7.088;2022-09-09T17:48:36;15.40;99.90
11736;DHT22;5924;51.398;7.088;2022-09-09T17:51:04;15.40;99.90
11736;DHT22;5924;51.398;7.088;2022-09-09T17:53:35;15.40;99.90
11736;DHT22;5924;51.398;7.088;2022-09-09T17:56:03;15.30;99.90
11736;DHT22;5924;51.398;7.088;2022-09-09T17:58:29;15.30;99.90
11736;DHT22;5924;51.398;7.088;2022-09-09T18:00:55;15.30;99.90
11736;DHT22;5924;51.398;7.088;2022-09-09T18:03:20;15.30;99.90
11736;DHT22;5924;51.398;7.088;2022-09-09T18:05:46;15.30;99.90